Pagrindinis puslapis
METAR-TAF:

METAR-TAF

Oro uostai :

Doha, Kataras

platuma: 25-15-40N, ilguma: 051-33-54E, Aukštis: 11 m

Dabartinis oras

Ataskaita buvo paskelbta 39 minutes, ne 04:00 UTC
Vėjas 9 kt iš Rytų/Pietryčių, svyruoja nuo Rytų ir Pietų/Pietryčių
Temperatūra 27°C
Drėgmė 74%
Slėgis 1009 hPa
Matomumas 10 km arba daugiau
nėra debesų žemiau 1500 m ir nėra kamuolinių lietaus debesų

METAR: OTBD 220400Z 12009KT 090V150 CAVOK 27/22 Q1009 NOSIG

Laikas: 07:39 (04:39 UTC)

Prognozė

Ataskaita buvo paskelbta 5 valandos ir 33 minutes, ne 23:06 UTC
Prognozė galioja nuo 22 metu 00 UTC su 23 metu 06 UTC
Vėjas 10 kt iš Rytų/Pietryčių
Matomumas: 8000 m
Laikinai
nuo 22 metu 03 UTC su 22 metu 15 UTC
Vėjas 10 kt iš Rytų/Pietryčių su gūsio iki 20 kt
Tikimybė 30% :
Laikinai
nuo 22 metu 06 UTC su 22 metu 14 UTC
Matomumas: 5000 m
Mažai debesys ne aukštis 4500 ft
Su prošvaistėmis ne aukštis 10000 ft
lietus, dulkės,

TAF: OTBD 212306Z 2200/2306 12010KT 8000 NSC TEMPO 2203/2215 12010G20KT PROB30 TEMPO 2206/2214 5000 -RA DU FEW045 TCU BKN100

Orai ataskaitas ir orų prognozės (METAR, TAF).

turimą stotys yra geltonos ir raudonos taškus žemėlapyje.

Perkelti pele per norėdami pamatyti stoties vardą.

Tada spustelėkite, norėdami matyti oro stebėjimo ir prognozės.

Norėdami pakeisti žemėlapį: spustelėkite ant žalios mygtukų su juodo kryžiaus žemyn,; žalią mygtuką su brūkšneliu, jei norite nutolinti; arba žalių rodyklių gretimoms žemėlapius.


METAR-TAF: